createdAt,value
2022-08-09T09:26:46.707Z,24.11
2022-08-09T09:32:03.271Z,24.23
2022-08-09T09:36:22.033Z,24.63
2022-08-09T09:41:25.916Z,24.90
2022-08-09T09:51:18.740Z,24.24
2022-08-09T09:55:48.839Z,25.50
2022-08-09T10:10:18.621Z,25.09
2022-08-09T10:15:50.760Z,24.94
2022-08-09T10:20:15.243Z,25.38
2022-08-09T10:24:54.370Z,26.12
2022-08-09T10:30:43.909Z,25.00
2022-08-09T10:35:30.788Z,25.71
2022-08-09T10:40:34.984Z,25.52
2022-08-09T10:45:18.165Z,26.13
2022-08-09T10:49:54.553Z,26.23
2022-08-09T11:09:50.918Z,25.78
2022-08-09T11:13:53.755Z,26.71
2022-08-09T11:19:09.282Z,26.71
2022-08-09T11:23:23.890Z,26.19
2022-08-09T11:28:08.126Z,26.83
2022-08-09T11:33:21.266Z,26.63
2022-08-09T11:37:41.057Z,26.59
2022-08-09T11:41:49.682Z,27.05
2022-08-09T11:46:03.006Z,26.84
2022-08-09T11:50:55.103Z,27.48
2022-08-09T11:54:42.160Z,27.29
2022-08-09T11:59:12.914Z,27.79
2022-08-09T12:03:55.540Z,27.23
2022-08-09T12:12:28.701Z,27.34
2022-08-09T12:16:42.931Z,27.16
2022-08-09T12:20:46.490Z,27.80
2022-08-09T12:24:51.670Z,27.73
2022-08-09T12:29:12.643Z,28.51
2022-08-09T12:33:50.858Z,27.44
2022-08-09T12:37:55.686Z,27.61
2022-08-09T12:42:17.125Z,27.03
2022-08-09T12:46:20.812Z,27.21
2022-08-09T12:50:25.131Z,27.33
2022-08-09T12:54:28.135Z,26.99
2022-08-09T12:58:34.741Z,27.15
2022-08-09T13:03:09.955Z,27.10
2022-08-09T13:07:28.461Z,27.85
2022-08-09T13:12:02.129Z,27.79
2022-08-09T13:16:08.424Z,27.80
2022-08-09T13:20:16.312Z,27.86
2022-08-09T13:24:53.650Z,27.77
2022-08-09T13:29:07.997Z,28.15
2022-08-09T13:33:17.333Z,28.13
2022-08-09T13:37:24.769Z,28.13
2022-08-09T13:42:00.471Z,27.85
2022-08-09T13:47:16.477Z,28.32
2022-08-09T13:50:31.798Z,28.06
2022-08-09T13:54:34.498Z,27.81
2022-08-09T13:58:37.287Z,28.39
2022-08-09T14:03:02.789Z,28.26
2022-08-09T14:07:06.524Z,27.45
2022-08-09T14:11:16.093Z,28.44
2022-08-09T14:16:10.574Z,27.93
2022-08-09T14:19:43.257Z,28.55
2022-08-09T14:23:55.389Z,28.55
2022-08-09T14:27:59.100Z,28.64
2022-08-09T14:32:10.829Z,28.21
2022-08-09T14:36:19.817Z,28.67
2022-08-09T14:41:01.443Z,28.85
2022-08-09T14:44:59.412Z,28.64
2022-08-09T14:49:03.443Z,27.75
2022-08-09T14:53:11.664Z,28.50
2022-08-09T14:57:14.851Z,28.21
2022-08-09T15:01:20.625Z,28.29
2022-08-09T15:05:22.704Z,28.42
2022-08-09T15:10:03.388Z,28.11
2022-08-09T15:14:04.118Z,28.11
2022-08-09T15:18:14.360Z,28.38
2022-08-09T15:22:17.484Z,28.02
2022-08-09T15:26:31.155Z,28.38
2022-08-09T15:30:59.159Z,27.87
2022-08-09T15:35:02.123Z,28.01
2022-08-09T15:39:21.950Z,27.76
2022-08-09T15:43:24.815Z,27.79
2022-08-09T15:47:51.453Z,27.80
2022-08-09T15:52:02.829Z,27.69
2022-08-09T15:56:26.998Z,27.95
2022-08-09T16:00:32.112Z,28.10
2022-08-09T16:04:34.862Z,27.46
2022-08-09T16:08:44.398Z,27.75
2022-08-09T16:12:53.530Z,27.66
2022-08-09T16:17:00.243Z,27.18
2022-08-09T16:21:02.623Z,27.15
2022-08-09T16:25:12.900Z,27.59
2022-08-09T16:29:22.339Z,27.47
2022-08-09T16:33:46.324Z,27.53
2022-08-09T16:37:55.045Z,26.94
2022-08-09T16:42:05.063Z,27.23
2022-08-09T16:46:08.003Z,27.26
2022-08-09T16:50:31.927Z,26.92
2022-08-09T16:54:41.479Z,27.35
2022-08-09T16:58:50.452Z,27.50
2022-08-09T17:02:52.899Z,27.36
2022-08-09T17:08:41.092Z,27.20
2022-08-09T17:11:24.629Z,27.26
2022-08-09T17:15:58.887Z,27.21
2022-08-09T17:20:30.241Z,27.31
2022-08-09T17:24:30.205Z,26.98
2022-08-09T17:28:38.722Z,26.80
2022-08-09T17:32:45.515Z,26.84
2022-08-09T17:36:53.627Z,26.58
2022-08-09T17:40:56.002Z,26.84
2022-08-09T17:44:59.501Z,26.59
2022-08-09T17:49:03.741Z,26.61
2022-08-09T17:53:19.307Z,26.59
2022-08-09T17:58:03.103Z,26.53
2022-08-09T18:02:06.573Z,26.43
2022-08-09T18:06:14.832Z,26.49
2022-08-09T18:10:34.088Z,26.37
2022-08-09T18:14:49.749Z,26.33
2022-08-09T18:19:03.784Z,26.04
2022-08-09T18:24:12.845Z,26.09
2022-08-09T18:30:34.948Z,25.58
2022-08-09T18:32:42.239Z,25.33
2022-08-09T18:36:53.180Z,25.45
2022-08-09T18:40:55.898Z,25.39
2022-08-09T18:45:02.987Z,25.25
2022-08-09T18:49:14.388Z,24.91
2022-08-09T18:53:16.776Z,25.09
2022-08-09T18:57:19.136Z,25.09
2022-08-09T19:01:21.655Z,25.13
2022-08-09T19:06:01.886Z,25.05
2022-08-09T19:10:14.044Z,24.79
2022-08-09T19:14:16.104Z,24.47
2022-08-09T19:18:42.286Z,24.60
2022-08-09T19:22:50.325Z,24.50
2022-08-09T19:26:56.633Z,24.38
2022-08-09T19:31:00.952Z,24.24
2022-08-09T19:35:03.441Z,24.07
2022-08-09T19:39:05.837Z,24.03
2022-08-09T19:43:10.352Z,23.84
2022-08-09T19:47:45.596Z,23.87
2022-08-09T19:51:55.205Z,23.73
2022-08-09T19:56:05.851Z,23.46
2022-08-09T20:00:10.115Z,23.39
2022-08-09T20:04:22.091Z,23.23
2022-08-09T20:08:35.308Z,23.50
2022-08-09T20:12:45.995Z,23.31
2022-08-09T20:16:54.296Z,22.94
2022-08-09T20:20:58.217Z,23.25
2022-08-09T20:25:00.815Z,23.29
2022-08-09T20:29:10.283Z,23.04
2022-08-09T20:33:21.322Z,22.66
2022-08-09T20:37:23.263Z,23.03
2022-08-09T20:41:34.813Z,22.86
2022-08-09T20:45:59.103Z,22.83
2022-08-09T20:50:08.984Z,22.73
2022-08-09T20:54:18.438Z,22.55
2022-08-09T20:58:21.236Z,22.43
2022-08-09T21:02:24.691Z,22.22
2022-08-09T21:06:27.079Z,22.61
2022-08-09T21:10:33.766Z,22.42
2022-08-09T21:14:41.645Z,22.47
2022-08-09T21:20:04.271Z,22.42
2022-08-09T21:23:10.847Z,22.32
2022-08-09T21:27:51.743Z,22.14
2022-08-09T21:31:48.054Z,22.14
2022-08-09T21:35:52.933Z,22.08
2022-08-09T21:39:57.534Z,22.10
2022-08-09T21:44:00.650Z,21.92
2022-08-09T21:48:02.813Z,21.45
2022-08-09T21:52:17.840Z,21.21
2022-08-09T21:56:34.036Z,21.19
2022-08-09T22:00:48.791Z,21.52
2022-08-09T22:04:57.978Z,21.43
2022-08-09T22:09:12.671Z,21.20
2022-08-09T22:13:20.267Z,20.90
2022-08-09T22:17:31.903Z,21.27
2022-08-09T22:21:45.205Z,21.26
2022-08-09T22:26:08.690Z,21.20
2022-08-09T22:30:15.177Z,21.21
2022-08-09T22:34:29.344Z,21.13
2022-08-09T22:38:39.180Z,21.09
2022-08-09T22:42:46.478Z,20.50
2022-08-09T22:48:13.939Z,20.53
2022-08-09T22:51:17.882Z,21.01
2022-08-09T22:56:06.553Z,20.51
2022-08-09T22:59:58.224Z,20.90
2022-08-09T23:04:07.377Z,20.89
2022-08-09T23:08:33.249Z,20.70
2022-08-09T23:12:42.816Z,20.59
2022-08-09T23:16:48.150Z,20.80
2022-08-09T23:20:51.050Z,20.78
2022-08-09T23:24:53.425Z,20.56
2022-08-09T23:28:55.601Z,20.75
2022-08-09T23:32:59.922Z,20.59
2022-08-09T23:37:03.154Z,20.20
2022-08-09T23:41:09.217Z,20.64
2022-08-09T23:45:36.877Z,20.05
2022-08-09T23:49:42.602Z,20.58
2022-08-09T23:53:50.629Z,20.15
2022-08-09T23:58:10.407Z,20.52
